Station: Kingscote

  Atmospheric Gas Attenuation - ITU Rec 676-11   --------------- db/100km ---------------
Date Time Temp RH % AH g/m3 Dew Point Wind Direction Speed kph Gust kph Barometer mB Rainfall Since 9am 24GHz 47GHz 76GHz 122GHz 134GHz 241GHz
22 12:20 22.3 82 16.19 19.1 9 11 1013.9 0.6 35.2 36.0 66.7 176.3 189.7 658.2
22 12:10 22.3 84 16.59 19.5 9 9 1014.1 0.6 36.1 36.8 68.6 181.2 195.7 679.1
22 12:00 22.1 82 16.01 18.9 9 13 1014.3 0.6 34.9 35.8 66.1 174.6 187.5 650.7
22 11:50 22.3 81 15.99 18.9 9 13 1014.2 0.6 34.8 35.7 65.8 173.9 186.7 647.9
22 11:40 22.5 80 15.98 18.9 13 15 1014.4 0.6 34.8 35.6 65.6 173.4 186.1 645.8
22 11:30 22.4 82 16.28 19.2 7 11 1014.5 0.6 35.4 36.2 67.1 177.2 190.8 662.2
22 11:20 22.3 84 16.59 19.5 9 11 1014.5 0.6 36.1 36.8 68.6 181.3 195.7 679.3
22 11:10 22.1 84 16.4 19.3 11 11 1014.4 0.6 35.7 36.5 67.9 179.4 193.4 671.1
22 11:00 22 83 16.11 19 13 19 1014.7 0.4 35.1 36.1 66.7 176.1 189.3 657.0
22 10:50 21.8 82 15.73 18.6 11 11 1014.6 0.2 34.3 35.4 65.1 172.0 184.2 638.9
22 10:40 23.7 71 15.19 18.1 19 22 1014.6 0 33.0 33.7 61.1 161.5 171.8 596.3
22 10:30 24 70 15.23 18.2 13 30 1014.5 0 33.0 33.7 61.1 161.3 171.7 595.9
22 10:20 23.3 74 15.47 18.4 11 13 1014.4 0 33.6 34.4 62.7 165.5 176.7 613.3
22 10:10 23.2 73 15.18 18.1 13 17 1014.3 0 33.0 33.9 61.5 162.4 172.8 599.5
22 10:00 22.8 76 15.44 18.3 15 20 1014.1 0 33.6 34.5 62.9 166.2 177.4 615.7
22 09:50 22.4 78 15.49 18.4 17 20 1013.8 0 33.7 34.7 63.5 167.6 179.1 621.3
22 09:40 22.6 76 15.27 18.2 30 35 1013.6 0 33.2 34.2 62.3 164.6 175.4 608.4
22 09:30 22.1 80 15.62 18.5 24 33 1013.5 0 34.0 35.1 64.3 169.8 181.7 630.2
22 09:20 21.8 80 15.35 18.2 26 30 1013.4 0 33.5 34.7 63.3 167.2 178.4 618.8
22 09:10 21.9 82 15.82 18.7 19 20 1013.6 0 34.5 35.5 65.4 172.7 185.1 642.3
22 09:00 21.7 80 15.26 18.1 24 35 1013.6 0 33.3 34.6 63.0 166.4 177.3 615.1
22 08:50 22 80 15.53 18.4 19 20 1013.8 3.6 33.9 35.0 64.0 169.0 180.6 626.6
22 08:40 21.7 83 15.83 18.7 20 24 1013.9 3.2 34.5 35.6 65.6 173.3 185.8 644.6
22 08:30 21.7 83 15.83 18.7 20 28 1014 3 34.5 35.6 65.6 173.3 185.8 644.6
22 08:20 21.5 83 15.65 18.5 17 20 1013.8 2.4 34.2 35.4 64.9 171.6 183.6 636.9
22 08:10 21.5 81 15.27 18.1 22 28 1013.8 2.2 33.3 34.7 63.2 167.0 178.0 617.3
22 08:00 21.7 79 15.07 17.9 32 48 1014.1 2 32.9 34.3 62.2 164.2 174.6 605.7
22 07:50 22.1 75 14.64 17.5 35 41 1014 0.8 31.9 33.3 60.0 158.3 167.5 580.9
22 07:40 25 55 12.66 15.3 22 24 1013.9 0 27.6 29.0 49.7 131.0 134.8 467.2
22 07:30 26.2 46 11.32 13.7 28 39 1013.7 0 24.7 26.5 43.8 115.4 116.0 401.6
22 07:20 26.4 45 11.2 13.5 32 35 1013.4 0 24.4 26.3 43.3 113.9 114.2 395.4
22 07:10 25.8 51 12.28 14.9 28 33 1013 0 26.7 28.1 47.7 125.6 128.5 445.3
22 07:00 25.4 54 12.71 15.4 28 37 1012.8 0 27.6 28.9 49.6 130.7 134.7 466.7
22 06:50 25.5 51 12.07 14.6 30 33 1012.3 0 26.3 27.8 47.0 123.9 126.3 437.4
22 06:40 25.6 50 11.9 14.4 26 32 1012.3 0 25.9 27.5 46.3 122.0 124.0 429.4
22 06:30 25.2 52 12.11 14.9 26 35 1012.3 0 26.4 28.0 47.3 124.8 127.3 440.9
22 06:20 25.2 52 12.11 14.9 28 32 1012.1 0 26.4 28.0 47.3 124.7 127.2 440.8
22 06:10 25.2 54 12.57 15.2 24 32 1012 0 27.4 28.7 49.1 129.5 133.1 461.3
22 06:00 24.8 54 12.29 15.1 26 32 1012.1 0 26.8 28.4 48.3 127.2 130.2 451.1
22 05:50 24.7 55 12.45 15.1 26 30 1012 0 27.1 28.7 49.0 129.1 132.4 458.8
22 05:40 24.9 52 11.9 14.4 32 41 1012.1 0 26.0 27.8 46.7 123.0 125.1 433.2
22 05:30 24.8 52 11.84 14.3 24 35 1012.1 0 25.9 27.7 46.5 122.6 124.5 431.0
22 05:20 24.5 55 12.31 14.9 20 22 1012.1 0 26.9 28.5 48.5 127.9 131.0 453.7
22 05:10 24.1 58 12.69 15.3 17 20 1012.2 0 27.7 29.3 50.3 132.6 136.6 473.4
22 04:50 23.7 60 12.83 15.5 19 22 1012.4 0 28.0 29.6 51.1 134.8 139.2 482.3
22 04:40 24.5 55 12.31 14.9 20 26 1012.6 0 26.9 28.5 48.6 128.0 131.0 453.9
22 04:30 25 53 12.2 14.8 20 26 1012.3 0 26.6 28.2 47.8 126.0 128.7 446.0
22 04:20 25.2 50 11.64 14.3 19 24 1012.3 0 25.4 27.3 45.5 119.9 121.3 420.2
22 04:10 25.2 51 11.87 14.6 20 24 1012.4 0 25.9 27.6 46.4 122.3 124.2 430.3
22 04:00 25.2 51 11.87 14.6 19 24 1012.6 0 25.9 27.6 46.4 122.3 124.3 430.4
22 03:50 24.9 54 12.36 15.2 17 20 1012.6 0 26.9 28.5 48.5 127.9 131.0 453.8
22 03:40 25.1 52 12.04 14.8 17 20 1012.7 0 26.3 27.9 47.2 124.2 126.6 438.5
22 03:30 25.2 51 11.87 14.6 19 26 1012.8 0 25.9 27.6 46.4 122.3 124.3 430.4
22 03:20 25.3 51 11.94 14.7 19 20 1012.7 0 26.0 27.7 46.6 122.9 125.0 432.9
22 03:10 25.4 52 12.24 14.8 17 20 1012.7 0 26.7 28.2 47.7 125.8 128.6 445.7
22 03:00 25.5 52 12.31 14.9 17 28 1012.8 0 26.8 28.2 48.0 126.4 129.4 448.2
22 02:50 25.2 52 12.11 14.9 15 17 1012.8 0 26.4 28.0 47.4 124.8 127.3 441.0
22 02:40 25.2 54 12.57 15.2 15 17 1012.9 0 27.4 28.7 49.2 129.6 133.2 461.6
22 02:30 25.2 54 12.57 15.2 13 17 1013.2 0 27.4 28.8 49.2 129.6 133.2 461.7
22 02:20 25.3 53 12.41 15 11 13 1013.1 0 27.0 28.5 48.5 127.8 131.0 453.9
22 02:10 25.3 54 12.64 15.3 11 13 1013.2 0 27.5 28.8 49.4 130.2 134.0 464.3
22 02:00 25.5 53 12.55 15.2 15 20 1013.5 0 27.3 28.6 48.9 129.0 132.5 459.2
22 01:50 25.7 52 12.45 15.1 19 22 1013.5 0 27.1 28.4 48.4 127.6 130.9 453.6
22 01:40 25.5 53 12.55 15.2 9 9 1013.7 0 27.3 28.6 48.9 129.0 132.5 459.3
22 01:30 25.7 51 12.21 14.8 9 15 1014 0 26.6 28.1 47.5 125.2 127.9 443.1
22 01:20 24.4 53 11.79 14.2 11 13 1014.1 0 25.8 27.8 46.7 122.9 124.7 431.7
22 01:10 25 51 11.74 14.2 11 13 1014 0 25.6 27.5 46.1 121.5 123.1 426.2
22 01:00 24.6 53 11.93 14.4 7 9 1014 0 26.0 28.0 47.1 124.0 126.1 436.8
22 00:50 24 53 11.53 13.8 7 9 1014 0 25.2 27.5 45.9 120.8 122.0 422.2
22 00:40 24.1 53 11.6 13.9 0 2 1014.1 0 25.4 27.6 46.1 121.4 122.7 424.9
22 00:30 24.1 53 11.6 13.9 7 9 1014.2 0 25.4 27.6 46.1 121.4 122.7 424.9
22 00:20 24.2 52 11.44 13.7 7 7 1014.2 0 25.0 27.3 45.4 119.6 120.5 417.3
22 00:10 24.4 50 11.13 13.3 9 9 1014.2 0 24.4 26.8 44.1 116.2 116.4 402.7
22 00:00 24.4 50 11.13 13.3 6 9 1014.4 0 24.4 26.8 44.1 116.2 116.4 402.7
21 23:50 24.6 49 11.03 13.2 7 9 1014.3 0 24.2 26.6 43.7 114.9 114.8 397.3
21 23:40 24.5 49 10.97 13.1 7 9 1014.4 0 24.0 26.5 43.5 114.4 114.2 395.3
21 23:30 25.4 45 10.59 12.6 7 11 1014.4 0 23.2 25.7 41.6 109.4 108.3 374.7
21 23:20 25.2 45 10.48 12.4 6 6 1014.4 0 23.0 25.6 41.3 108.6 107.3 371.0
21 23:10 25.2 45 10.48 12.4 6 6 1014.4 0 23.0 25.6 41.3 108.6 107.3 371.0
21 23:00 25.4 44 10.36 12.3 9 11 1014.6 0 22.7 25.4 40.8 107.2 105.6 365.1
21 22:50 25.6 43 10.24 12.1 7 7 1014.5 0 22.5 25.1 40.2 105.7 103.9 359.1
21 22:40 26.1 41 10.04 11.8 7 7 1014.6 0 22.0 24.7 39.3 103.2 100.9 348.7
21 22:30 26.3 40 9.9 11.6 7 11 1014.7 0 21.7 24.4 38.7 101.6 99.0 342.1
21 22:20 26.4 40 9.96 11.7 11 13 1014.6 0 21.8 24.5 38.8 102.0 99.6 344.1
21 22:10 26.5 40 10.01 11.8 9 13 1014.6 0 21.9 24.5 39.0 102.4 100.0 345.7
21 22:00 26.7 40 10.13 12 11 15 1014.7 0 22.2 24.7 39.3 103.3 101.2 349.8
21 21:50 26.9 40 10.24 12.2 11 13 1014.7 0 22.4 24.8 39.6 104.1 102.2 353.4
21 21:40 27.2 38 9.89 11.7 15 19 1014.6 0 21.6 24.2 38.2 100.4 97.8 337.9
21 21:30 27.4 38 10 11.8 15 20 1014.6 0 21.9 24.3 38.5 101.2 98.8 341.5
21 21:20 27.3 40 10.47 12.5 15 17 1014.5 0 22.8 25.0 40.2 105.7 104.4 361.1
21 21:10 27.4 42 11.05 13.4 13 17 1014.6 0 24.0 25.8 42.3 111.2 111.1 384.6
21 21:00 27.6 40 10.64 12.8 19 22 1014.6 0 23.2 25.2 40.7 107.0 106.0 366.7
21 20:50 27.6 41 10.91 13.2 20 24 1014.5 0 23.7 25.5 41.6 109.5 109.2 377.8
21 20:40 27.7 41 10.97 13.3 20 22 1014.5 0 23.9 25.6 41.8 110.0 109.7 379.9
21 20:30 27.4 45 11.84 14.4 13 19 1014.6 0 25.7 27.0 45.2 118.9 120.7 418.0
21 20:20 27.3 47 12.3 15 11 13 1014.5 0 26.7 27.7 46.9 123.7 126.5 438.4
21 20:10 27.1 47 12.16 15.1 11 13 1014.4 0 26.4 27.6 46.5 122.6 125.0 433.3
21 20:00 27 49 12.61 15.4 13 20 1014.5 0 27.3 28.3 48.3 127.3 130.8 453.6
21 19:50 27.1 49 12.68 15.5 11 13 1014.5 0 27.5 28.4 48.5 127.9 131.6 456.1
21 19:40 27.2 49 12.75 15.6 15 17 1014.4 0 27.6 28.4 48.7 128.4 132.3 458.6

Last Refresh: 22-Jan-2022 12:29:55

Bureau of Meteorology